Time,TemperatureF,DewpointF,PressureIn,WindDirection,WindDirectionDegrees,WindSpeedMPH,WindSpeedGustMPH,Humidity,HourlyPrecipIn,Conditions,Clouds,dailyrainin,SoftwareType,DateUTC
2013-07-03 00:11:00,61.0,60.0,-100.00,East,90,1.0,4.0,94,-99.99,,,-99.99,,2013-07-03 05:11:00,
2013-07-03 00:23:00,61.0,60.0,-100.00,East,90,1.0,4.0,94,-99.99,,,-99.99,,2013-07-03 05:23:00,
2013-07-03 00:47:00,61.0,60.0,-100.00,ENE,70,2.0,4.0,95,-99.99,,,-99.99,,2013-07-03 05:47:00,
2013-07-03 01:01:00,61.0,60.0,-100.00,ENE,70,2.0,4.0,95,-99.99,,,-99.99,,2013-07-03 06:01:00,
2013-07-03 01:14:00,60.0,59.0,-100.00,SE,130,2.0,4.0,96,-99.99,,,-99.99,,2013-07-03 06:14:00,
2013-07-03 01:24:00,60.0,59.0,-100.00,SE,130,2.0,4.0,96,-99.99,,,-99.99,,2013-07-03 06:24:00,
2013-07-03 01:58:00,61.0,60.0,-100.00,East,85,1.0,3.0,97,-99.99,,,-99.99,,2013-07-03 06:58:00,
2013-07-03 02:26:00,61.0,60.0,-100.00,ESE,110,1.0,4.0,97,-99.99,,,-99.99,,2013-07-03 07:26:00,
2013-07-03 02:37:00,61.0,60.0,-100.00,ESE,110,1.0,4.0,97,-99.99,,,-99.99,,2013-07-03 07:37:00,
2013-07-03 03:01:00,61.0,60.0,-100.00,ENE,75,1.0,4.0,98,-99.99,,,-99.99,,2013-07-03 08:01:00,
2013-07-03 03:25:00,60.0,60.0,-100.00,East,80,1.0,4.0,98,-99.99,,,-99.99,,2013-07-03 08:25:00,
2013-07-03 03:45:00,61.0,60.0,-100.00,ENE,65,1.0,4.0,98,-99.99,,,-99.99,,2013-07-03 08:45:00,
2013-07-03 04:16:00,60.0,59.0,-100.00,SSE,155,4.0,4.0,98,-99.99,,,-99.99,,2013-07-03 09:16:00,
2013-07-03 04:24:00,60.0,59.0,-100.00,SSE,155,4.0,4.0,98,-99.99,,,-99.99,,2013-07-03 09:24:00,
2013-07-03 04:57:00,60.0,60.0,-100.00,SE,130,2.0,3.0,98,-99.99,,,-99.99,,2013-07-03 09:57:00,
2013-07-03 05:15:00,61.0,61.0,-100.00,East,95,1.0,4.0,98,-99.99,,,-99.99,,2013-07-03 10:15:00,
2013-07-03 05:28:00,61.0,61.0,-100.00,East,95,1.0,4.0,98,-99.99,,,-99.99,,2013-07-03 10:28:00,
2013-07-03 06:43:00,62.0,61.0,-100.00,ESE,115,0.0,4.0,98,-99.99,,,-99.99,,2013-07-03 11:43:00,
2013-07-03 07:16:00,63.0,62.0,-100.00,ENE,65,2.0,6.0,97,-99.99,,,-99.99,,2013-07-03 12:16:00,
2013-07-03 07:25:00,63.0,62.0,-100.00,ENE,65,2.0,6.0,97,-99.99,,,-99.99,,2013-07-03 12:25:00,
2013-07-03 07:58:00,63.0,62.0,-100.00,East,85,2.0,6.0,97,-99.99,,,-99.99,,2013-07-03 12:58:00,
2013-07-03 08:25:00,64.0,62.0,-100.00,NE,55,3.0,6.0,94,-99.99,,,-99.99,,2013-07-03 13:25:00,
2013-07-03 08:47:00,66.0,62.0,-100.00,ENE,70,2.0,6.0,86,-99.99,,,-99.99,,2013-07-03 13:47:00,
2013-07-03 08:55:00,66.0,62.0,-100.00,ENE,70,2.0,6.0,86,-99.99,,,-99.99,,2013-07-03 13:55:00,
2013-07-03 09:26:00,69.0,60.0,-100.00,East,90,2.0,6.0,74,-99.99,,,-99.99,,2013-07-03 14:26:00,
2013-07-03 09:46:00,69.0,59.0,-100.00,ENE,75,4.0,7.0,72,-99.99,,,-99.99,,2013-07-03 14:46:00,
2013-07-03 09:55:00,69.0,59.0,-100.00,ENE,75,4.0,7.0,72,-99.99,,,-99.99,,2013-07-03 14:55:00,
2013-07-03 10:26:00,71.0,60.0,-100.00,East,80,2.0,9.0,67,-99.99,,,-99.99,,2013-07-03 15:26:00,
2013-07-03 10:57:00,72.0,59.0,-100.00,NE,50,2.0,10.0,64,-99.99,,,-99.99,,2013-07-03 15:57:00,
2013-07-03 11:23:00,74.0,59.0,-100.00,NE,50,4.0,8.0,59,-99.99,,,-99.99,,2013-07-03 16:23:00,
2013-07-03 11:46:00,76.0,59.0,-100.00,NE,55,5.0,11.0,55,-99.99,,,-99.99,,2013-07-03 16:46:00,
2013-07-03 12:00:00,76.0,59.0,-100.00,NE,55,5.0,11.0,55,-99.99,,,-99.99,,2013-07-03 17:00:00,
2013-07-03 12:46:00,78.0,59.0,-100.00,East,100,3.0,10.0,51,-99.99,,,-99.99,,2013-07-03 17:46:00,
2013-07-03 12:56:00,78.0,59.0,-100.00,East,100,3.0,10.0,51,-99.99,,,-99.99,,2013-07-03 17:56:00,
2013-07-03 13:15:00,79.0,58.0,-100.00,ENE,70,4.0,7.0,49,-99.99,,,-99.99,,2013-07-03 18:15:00,
2013-07-03 13:25:00,79.0,58.0,-100.00,ENE,70,4.0,7.0,49,-99.99,,,-99.99,,2013-07-03 18:25:00,
2013-07-03 13:59:00,80.0,57.0,-100.00,ESE,105,1.0,8.0,46,-99.99,,,-99.99,,2013-07-03 18:59:00,
2013-07-03 14:29:00,80.0,57.0,-100.00,NE,50,4.0,7.0,45,-99.99,,,-99.99,,2013-07-03 19:29:00,
2013-07-03 14:57:00,80.0,56.0,-100.00,ESE,110,2.0,8.0,43,-99.99,,,-99.99,,2013-07-03 19:57:00,
2013-07-03 16:13:00,81.0,53.0,-100.00,WNW,290,2.0,5.0,39,-99.99,,,-99.99,,2013-07-03 21:13:00,
2013-07-03 16:26:00,81.0,53.0,-100.00,WNW,290,2.0,5.0,39,-99.99,,,-99.99,,2013-07-03 21:26:00,
2013-07-03 16:55:00,81.0,53.0,-100.00,South,190,1.0,7.0,38,-99.99,,,-99.99,,2013-07-03 21:55:00,
2013-07-03 17:14:00,83.0,53.0,-100.00,WSW,240,2.0,5.0,36,-99.99,,,-99.99,,2013-07-03 22:14:00,
2013-07-03 17:26:00,83.0,53.0,-100.00,WSW,240,2.0,5.0,36,-99.99,,,-99.99,,2013-07-03 22:26:00,
2013-07-03 17:45:00,82.0,51.0,-100.00,West,270,3.0,4.0,34,-99.99,,,-99.99,,2013-07-03 22:45:00,
2013-07-03 17:57:00,82.0,51.0,-100.00,West,270,3.0,4.0,34,-99.99,,,-99.99,,2013-07-03 22:57:00,
2013-07-03 18:24:00,82.0,51.0,-100.00,WNW,295,4.0,8.0,35,-99.99,,,-99.99,,2013-07-03 23:24:00,
2013-07-03 18:44:00,83.0,51.0,-100.00,SW,235,2.0,4.0,34,-99.99,,,-99.99,,2013-07-03 23:44:00,
2013-07-03 18:56:00,83.0,51.0,-100.00,SW,235,2.0,4.0,34,-99.99,,,-99.99,,2013-07-03 23:56:00,
2013-07-03 19:24:00,81.0,51.0,-100.00,ESE,120,0.0,4.0,36,-99.99,,,-99.99,,2013-07-04 00:24:00,
2013-07-03 19:47:00,81.0,52.0,-100.00,NNW,330,1.0,4.0,36,-99.99,,,-99.99,,2013-07-04 00:47:00,
2013-07-03 19:57:00,81.0,52.0,-100.00,NNW,330,1.0,4.0,36,-99.99,,,-99.99,,2013-07-04 00:57:00,
2013-07-03 20:23:00,77.0,53.0,-100.00,ESE,110,1.0,4.0,43,-99.99,,,-99.99,,2013-07-04 01:23:00,
2013-07-03 20:43:00,74.0,57.0,-100.00,SSE,165,4.0,4.0,55,-99.99,,,-99.99,,2013-07-04 01:43:00,
2013-07-03 20:56:00,74.0,57.0,-100.00,SSE,165,4.0,4.0,55,-99.99,,,-99.99,,2013-07-04 01:56:00,
2013-07-03 21:23:00,71.0,57.0,-100.00,SSE,165,1.0,4.0,62,-99.99,,,-99.99,,2013-07-04 02:23:00,
2013-07-03 21:47:00,69.0,56.0,-100.00,South,170,4.0,4.0,64,-99.99,,,-99.99,,2013-07-04 02:47:00,
2013-07-03 21:57:00,69.0,56.0,-100.00,South,170,4.0,4.0,64,-99.99,,,-99.99,,2013-07-04 02:57:00,
2013-07-03 22:14:00,68.0,57.0,-100.00,SSE,150,1.0,4.0,69,-99.99,,,-99.99,,2013-07-04 03:14:00,
2013-07-03 22:27:00,68.0,57.0,-100.00,SSE,150,1.0,4.0,69,-99.99,,,-99.99,,2013-07-04 03:27:00,
2013-07-03 22:57:00,67.0,59.0,-100.00,SSE,160,1.0,4.0,76,-99.99,,,-99.99,,2013-07-04 03:57:00,
2013-07-03 23:02:00,66.0,60.0,-100.00,SSE,155,1.0,2.0,81,-99.99,,,-99.99,,2013-07-04 04:02:00,
2013-07-03 23:11:00,66.0,60.0,-100.00,SE,145,2.0,3.0,83,-99.99,,,-99.99,,2013-07-04 04:11:00,
2013-07-03 23:22:00,66.0,60.0,-100.00,SE,145,2.0,3.0,83,-99.99,,,-99.99,,2013-07-04 04:22:00,
2013-07-03 23:43:00,65.0,61.0,-100.00,SSE,160,4.0,4.0,88,-99.99,,,-99.99,,2013-07-04 04:43:00,
2013-07-03 23:52:00,65.0,61.0,-100.00,SSE,160,4.0,4.0,88,-99.99,,,-99.99,,2013-07-04 04:52:00,